sensor_id;sensor_type;location;lat;lon;timestamp;pressure;altitude;pressure_sealevel;temperature;humidity
53011;BME280;42803;55.762;38.084;2023-02-15T00:01:31;99805.34;;;-3.46;100.00
53011;BME280;42803;55.762;38.084;2023-02-15T00:04:01;99795.44;;;-3.50;100.00
53011;BME280;42803;55.762;38.084;2023-02-15T00:06:31;99801.13;;;-3.58;100.00
53011;BME280;42803;55.762;38.084;2023-02-15T00:09:00;99795.94;;;-3.53;100.00
53011;BME280;42803;55.762;38.084;2023-02-15T00:11:30;99806.72;;;-3.61;100.00
53011;BME280;42803;55.762;38.084;2023-02-15T00:14:10;99800.59;;;-3.56;100.00
53011;BME280;42803;55.762;38.084;2023-02-15T00:16:41;99795.59;;;-3.61;100.00
53011;BME280;42803;55.762;38.084;2023-02-15T00:19:14;99798.59;;;-3.58;100.00
53011;BME280;42803;55.762;38.084;2023-02-15T00:21:43;99799.41;;;-3.52;100.00
53011;BME280;42803;55.762;38.084;2023-02-15T00:24:14;99793.69;;;-3.44;100.00
53011;BME280;42803;55.762;38.084;2023-02-15T00:26:44;99803.28;;;-3.49;100.00
53011;BME280;42803;55.762;38.084;2023-02-15T00:29:15;99812.28;;;-3.45;100.00
53011;BME280;42803;55.762;38.084;2023-02-15T00:31:44;99798.66;;;-3.51;100.00
53011;BME280;42803;55.762;38.084;2023-02-15T00:34:17;99806.44;;;-3.44;100.00
53011;BME280;42803;55.762;38.084;2023-02-15T00:36:47;99817.56;;;-3.44;100.00
53011;BME280;42803;55.762;38.084;2023-02-15T00:39:17;99808.88;;;-3.51;100.00
53011;BME280;42803;55.762;38.084;2023-02-15T00:41:47;99810.75;;;-3.50;100.00
53011;BME280;42803;55.762;38.084;2023-02-15T00:44:16;99818.69;;;-3.54;100.00
53011;BME280;42803;55.762;38.084;2023-02-15T00:46:45;99813.16;;;-3.57;100.00
53011;BME280;42803;55.762;38.084;2023-02-15T00:49:15;99820.22;;;-3.49;100.00
53011;BME280;42803;55.762;38.084;2023-02-15T00:51:44;99814.41;;;-3.48;100.00
53011;BME280;42803;55.762;38.084;2023-02-15T00:54:13;99818.69;;;-3.54;100.00
53011;BME280;42803;55.762;38.084;2023-02-15T00:56:42;99813.16;;;-3.57;100.00
53011;BME280;42803;55.762;38.084;2023-02-15T00:59:12;99813.47;;;-3.61;100.00
53011;BME280;42803;55.762;38.084;2023-02-15T01:01:41;99826.53;;;-3.53;100.00
53011;BME280;42803;55.762;38.084;2023-02-15T01:04:12;99814.50;;;-3.54;100.00
53011;BME280;42803;55.762;38.084;2023-02-15T01:06:42;99818.88;;;-3.65;100.00
53011;BME280;42803;55.762;38.084;2023-02-15T01:09:11;99818.34;;;-3.63;100.00
53011;BME280;42803;55.762;38.084;2023-02-15T01:11:41;99827.63;;;-3.63;100.00
53011;BME280;42803;55.762;38.084;2023-02-15T01:14:10;99820.69;;;-3.64;100.00
53011;BME280;42803;55.762;38.084;2023-02-15T01:16:41;99822.63;;;-3.69;100.00
53011;BME280;42803;55.762;38.084;2023-02-15T01:19:10;99823.13;;;-3.72;100.00
53011;BME280;42803;55.762;38.084;2023-02-15T01:21:39;99828.16;;;-3.66;100.00
53011;BME280;42803;55.762;38.084;2023-02-15T01:24:13;99837.63;;;-3.65;100.00
53011;BME280;42803;55.762;38.084;2023-02-15T01:26:42;99827.91;;;-3.68;100.00
53011;BME280;42803;55.762;38.084;2023-02-15T01:29:11;99831.31;;;-3.61;100.00
53011;BME280;42803;55.762;38.084;2023-02-15T01:31:40;99833.44;;;-3.64;100.00
53011;BME280;42803;55.762;38.084;2023-02-15T01:34:09;99829.75;;;-3.67;100.00
53011;BME280;42803;55.762;38.084;2023-02-15T01:36:38;99834.59;;;-3.62;100.00
53011;BME280;42803;55.762;38.084;2023-02-15T01:39:07;99843.22;;;-3.68;100.00
53011;BME280;42803;55.762;38.084;2023-02-15T01:41:39;99835.28;;;-3.63;100.00
53011;BME280;42803;55.762;38.084;2023-02-15T01:47:30;99839.28;;;-3.65;100.00
53011;BME280;42803;55.762;38.084;2023-02-15T01:50:08;99837.59;;;-3.47;100.00
53011;BME280;42803;55.762;38.084;2023-02-15T01:52:42;99841.44;;;-3.56;100.00
53011;BME280;42803;55.762;38.084;2023-02-15T01:55:15;99836.84;;;-3.58;100.00
53011;BME280;42803;55.762;38.084;2023-02-15T01:57:46;99836.41;;;-3.61;100.00
53011;BME280;42803;55.762;38.084;2023-02-15T02:00:16;99852.16;;;-3.58;100.00
53011;BME280;42803;55.762;38.084;2023-02-15T02:02:49;99846.53;;;-3.56;100.00
53011;BME280;42803;55.762;38.084;2023-02-15T02:05:25;99847.44;;;-3.55;100.00
53011;BME280;42803;55.762;38.084;2023-02-15T02:07:57;99844.28;;;-3.60;100.00
53011;BME280;42803;55.762;38.084;2023-02-15T02:10:27;99840.19;;;-3.65;100.00
53011;BME280;42803;55.762;38.084;2023-02-15T02:13:02;99846.19;;;-3.64;100.00
53011;BME280;42803;55.762;38.084;2023-02-15T02:15:38;99835.81;;;-3.66;100.00
53011;BME280;42803;55.762;38.084;2023-02-15T02:18:22;99853.06;;;-3.58;100.00
53011;BME280;42803;55.762;38.084;2023-02-15T02:24:07;99857.91;;;-3.72;100.00
53011;BME280;42803;55.762;38.084;2023-02-15T02:27:10;99846.38;;;-3.76;100.00
53011;BME280;42803;55.762;38.084;2023-02-15T02:30:10;99855.50;;;-3.65;100.00
53011;BME280;42803;55.762;38.084;2023-02-15T02:33:06;99857.41;;;-3.70;100.00
53011;BME280;42803;55.762;38.084;2023-02-15T02:35:42;99863.91;;;-3.72;100.00
53011;BME280;42803;55.762;38.084;2023-02-15T02:38:23;99863.16;;;-3.65;100.00
53011;BME280;42803;55.762;38.084;2023-02-15T02:41:00;99874.13;;;-3.72;100.00
53011;BME280;42803;55.762;38.084;2023-02-15T02:43:41;99878.75;;;-3.69;100.00
53011;BME280;42803;55.762;38.084;2023-02-15T02:46:17;99870.16;;;-3.70;100.00
53011;BME280;42803;55.762;38.084;2023-02-15T02:48:50;99879.56;;;-3.63;100.00
53011;BME280;42803;55.762;38.084;2023-02-15T02:51:19;99872.56;;;-3.58;100.00
53011;BME280;42803;55.762;38.084;2023-02-15T02:53:51;99884.75;;;-3.69;100.00
53011;BME280;42803;55.762;38.084;2023-02-15T02:56:25;99879.53;;;-3.76;100.00
53011;BME280;42803;55.762;38.084;2023-02-15T02:58:59;99875.97;;;-3.71;100.00
53011;BME280;42803;55.762;38.084;2023-02-15T03:01:37;99893.03;;;-3.64;100.00
53011;BME280;42803;55.762;38.084;2023-02-15T03:04:12;99881.16;;;-3.76;100.00
53011;BME280;42803;55.762;38.084;2023-02-15T03:06:46;99878.75;;;-3.69;100.00
53011;BME280;42803;55.762;38.084;2023-02-15T03:09:23;99880.66;;;-3.74;100.00
53011;BME280;42803;55.762;38.084;2023-02-15T03:12:11;99888.38;;;-3.79;100.00
53011;BME280;42803;55.762;38.084;2023-02-15T03:14:47;99881.94;;;-3.83;100.00
53011;BME280;42803;55.762;38.084;2023-02-15T03:17:18;99895.69;;;-3.88;100.00
53011;BME280;42803;55.762;38.084;2023-02-15T03:19:52;99886.59;;;-3.86;100.00
53011;BME280;42803;55.762;38.084;2023-02-15T03:22:28;99885.63;;;-3.81;100.00
53011;BME280;42803;55.762;38.084;2023-02-15T03:25:02;99892.06;;;-3.77;100.00
53011;BME280;42803;55.762;38.084;2023-02-15T03:27:37;99899.91;;;-3.76;100.00
53011;BME280;42803;55.762;38.084;2023-02-15T03:30:10;99888.41;;;-3.67;100.00
53011;BME280;42803;55.762;38.084;2023-02-15T03:32:41;99889.28;;;-3.79;100.00
53011;BME280;42803;55.762;38.084;2023-02-15T03:35:13;99883.84;;;-3.87;100.00
53011;BME280;42803;55.762;38.084;2023-02-15T03:37:47;99885.06;;;-3.91;100.00
53011;BME280;42803;55.762;38.084;2023-02-15T03:40:22;99900.97;;;-3.86;100.00
53011;BME280;42803;55.762;38.084;2023-02-15T03:43:14;99884.03;;;-3.86;100.00
53011;BME280;42803;55.762;38.084;2023-02-15T03:45:46;99886.41;;;-3.87;100.00
53011;BME280;42803;55.762;38.084;2023-02-15T03:48:26;99893.13;;;-3.88;100.00
53011;BME280;42803;55.762;38.084;2023-02-15T03:51:01;99895.41;;;-4.02;100.00
53011;BME280;42803;55.762;38.084;2023-02-15T03:53:51;99884.72;;;-4.00;100.00
53011;BME280;42803;55.762;38.084;2023-02-15T03:56:21;99895.69;;;-3.88;100.00
53011;BME280;42803;55.762;38.084;2023-02-15T03:58:50;99899.09;;;-4.00;100.00
53011;BME280;42803;55.762;38.084;2023-02-15T04:01:40;99908.28;;;-3.95;100.00
53011;BME280;42803;55.762;38.084;2023-02-15T04:04:33;99905.59;;;-4.02;100.00
53011;BME280;42803;55.762;38.084;2023-02-15T04:07:05;99900.06;;;-4.05;100.00
53011;BME280;42803;55.762;38.084;2023-02-15T04:09:34;99911.69;;;-4.07;100.00
53011;BME280;42803;55.762;38.084;2023-02-15T04:12:20;99907.28;;;-4.08;100.00
53011;BME280;42803;55.762;38.084;2023-02-15T04:14:50;99909.44;;;-4.11;100.00
53011;BME280;42803;55.762;38.084;2023-02-15T04:17:36;99928.38;;;-4.09;100.00
53011;BME280;42803;55.762;38.084;2023-02-15T04:20:07;99906.78;;;-4.06;100.00
53011;BME280;42803;55.762;38.084;2023-02-15T04:22:55;99899.72;;;-4.14;100.00
53011;BME280;42803;55.762;38.084;2023-02-15T04:25:42;99911.53;;;-4.14;100.00
53011;BME280;42803;55.762;38.084;2023-02-15T04:28:11;99896.81;;;-4.23;100.00
53011;BME280;42803;55.762;38.084;2023-02-15T04:30:40;99909.13;;;-4.26;100.00
53011;BME280;42803;55.762;38.084;2023-02-15T04:33:09;99901.00;;;-4.23;100.00
53011;BME280;42803;55.762;38.084;2023-02-15T04:35:38;99905.00;;;-4.12;100.00
53011;BME280;42803;55.762;38.084;2023-02-15T04:38:09;99908.13;;;-4.21;100.00
53011;BME280;42803;55.762;38.084;2023-02-15T04:40:38;99914.94;;;-4.27;100.00
53011;BME280;42803;55.762;38.084;2023-02-15T04:43:07;99914.94;;;-4.27;100.00
53011;BME280;42803;55.762;38.084;2023-02-15T04:45:36;99913.78;;;-4.29;100.00
53011;BME280;42803;55.762;38.084;2023-02-15T04:48:05;99921.69;;;-4.33;100.00
53011;BME280;42803;55.762;38.084;2023-02-15T04:50:35;99920.97;;;-4.32;100.00
53011;BME280;42803;55.762;38.084;2023-02-15T04:53:04;99921.22;;;-4.30;100.00
53011;BME280;42803;55.762;38.084;2023-02-15T04:55:34;99920.31;;;-4.31;100.00
53011;BME280;42803;55.762;38.084;2023-02-15T04:58:03;99920.97;;;-4.32;100.00
53011;BME280;42803;55.762;38.084;2023-02-15T05:00:32;99912.38;;;-4.27;100.00
53011;BME280;42803;55.762;38.084;2023-02-15T05:03:02;99912.38;;;-4.27;100.00
53011;BME280;42803;55.762;38.084;2023-02-15T05:05:31;99925.75;;;-4.22;100.00
53011;BME280;42803;55.762;38.084;2023-02-15T05:08:00;99913.50;;;-4.25;100.00
53011;BME280;42803;55.762;38.084;2023-02-15T05:10:29;99924.59;;;-4.24;100.00
53011;BME280;42803;55.762;38.084;2023-02-15T05:12:59;99928.03;;;-4.18;100.00
53011;BME280;42803;55.762;38.084;2023-02-15T05:15:29;99916.91;;;-4.19;100.00
53011;BME280;42803;55.762;38.084;2023-02-15T05:17:58;99941.53;;;-4.25;100.00
53011;BME280;42803;55.762;38.084;2023-02-15T05:20:27;99923.94;;;-4.23;100.00
53011;BME280;42803;55.762;38.084;2023-02-15T05:22:56;99924.84;;;-4.23;100.00
53011;BME280;42803;55.762;38.084;2023-02-15T05:25:25;99938.78;;;-4.26;100.00
53011;BME280;42803;55.762;38.084;2023-02-15T05:28:13;99936.72;;;-4.29;100.00
53011;BME280;42803;55.762;38.084;2023-02-15T05:30:48;99935.59;;;-4.31;100.00
53011;BME280;42803;55.762;38.084;2023-02-15T05:33:19;99941.59;;;-4.30;100.00
53011;BME280;42803;55.762;38.084;2023-02-15T05:35:48;99941.38;;;-4.32;100.00
53011;BME280;42803;55.762;38.084;2023-02-15T05:38:18;99943.25;;;-4.31;100.00
53011;BME280;42803;55.762;38.084;2023-02-15T05:40:47;99940.19;;;-4.28;100.00
53011;BME280;42803;55.762;38.084;2023-02-15T05:43:18;99942.44;;;-4.24;100.00
53011;BME280;42803;55.762;38.084;2023-02-15T05:45:48;99951.28;;;-4.28;100.00
53011;BME280;42803;55.762;38.084;2023-02-15T05:48:18;99951.72;;;-4.25;100.00
53011;BME280;42803;55.762;38.084;2023-02-15T05:50:57;99957.06;;;-4.23;100.00
53011;BME280;42803;55.762;38.084;2023-02-15T05:53:27;99954.44;;;-4.18;100.00
53011;BME280;42803;55.762;38.084;2023-02-15T05:55:56;99965.78;;;-4.15;100.00
53011;BME280;42803;55.762;38.084;2023-02-15T05:58:30;99956.81;;;-4.25;100.00
53011;BME280;42803;55.762;38.084;2023-02-15T06:01:06;99958.25;;;-4.27;100.00
53011;BME280;42803;55.762;38.084;2023-02-15T06:03:35;99958.66;;;-4.24;100.00
53011;BME280;42803;55.762;38.084;2023-02-15T06:06:04;99960.97;;;-4.20;100.00
53011;BME280;42803;55.762;38.084;2023-02-15T06:08:35;99963.91;;;-4.17;100.00
53011;BME280;42803;55.762;38.084;2023-02-15T06:11:05;99968.16;;;-4.23;100.00
53011;BME280;42803;55.762;38.084;2023-02-15T06:13:35;99971.41;;;-4.24;100.00
53011;BME280;42803;55.762;38.084;2023-02-15T06:16:06;99968.84;;;-4.24;100.00
53011;BME280;42803;55.762;38.084;2023-02-15T06:18:35;99968.16;;;-4.23;100.00
53011;BME280;42803;55.762;38.084;2023-02-15T06:21:05;99971.66;;;-4.28;100.00
53011;BME280;42803;55.762;38.084;2023-02-15T06:23:34;99975.41;;;-4.31;100.00
53011;BME280;42803;55.762;38.084;2023-02-15T06:26:03;99974.28;;;-4.33;100.00
53011;BME280;42803;55.762;38.084;2023-02-15T06:28:32;99985.69;;;-4.37;100.00
53011;BME280;42803;55.762;38.084;2023-02-15T06:31:03;99985.75;;;-4.43;100.00
53011;BME280;42803;55.762;38.084;2023-02-15T06:33:33;99997.25;;;-4.39;100.00
53011;BME280;42803;55.762;38.084;2023-02-15T06:36:02;99981.06;;;-4.39;100.00
53011;BME280;42803;55.762;38.084;2023-02-15T06:38:32;99973.91;;;-4.42;100.00
53011;BME280;42803;55.762;38.084;2023-02-15T06:41:01;99982.84;;;-4.33;100.00
53011;BME280;42803;55.762;38.084;2023-02-15T06:43:30;99978.13;;;-4.24;100.00
53011;BME280;42803;55.762;38.084;2023-02-15T06:45:59;99979.16;;;-4.11;100.00
53011;BME280;42803;55.762;38.084;2023-02-15T06:48:30;99982.78;;;-4.03;100.00
53011;BME280;42803;55.762;38.084;2023-02-15T06:50:59;99984.97;;;-4.12;100.00
53011;BME280;42803;55.762;38.084;2023-02-15T06:53:28;99985.63;;;-4.07;100.00
53011;BME280;42803;55.762;38.084;2023-02-15T06:56:00;99997.38;;;-4.02;100.00
53011;BME280;42803;55.762;38.084;2023-02-15T06:58:34;99980.16;;;-3.98;100.00
53011;BME280;42803;55.762;38.084;2023-02-15T07:01:07;99993.00;;;-3.85;100.00
53011;BME280;42803;55.762;38.084;2023-02-15T07:03:42;99993.09;;;-3.72;100.00
53011;BME280;42803;55.762;38.084;2023-02-15T07:06:11;99985.16;;;-3.68;100.00
53011;BME280;42803;55.762;38.084;2023-02-15T07:08:42;99985.34;;;-3.67;100.00
53011;BME280;42803;55.762;38.084;2023-02-15T07:11:12;100015.44;;;-3.58;100.00
53011;BME280;42803;55.762;38.084;2023-02-15T07:13:58;99987.91;;;-3.67;100.00
53011;BME280;42803;55.762;38.084;2023-02-15T07:16:27;99985.78;;;-3.63;100.00
53011;BME280;42803;55.762;38.084;2023-02-15T07:18:58;100001.81;;;-3.46;99.98
53011;BME280;42803;55.762;38.084;2023-02-15T07:21:28;99999.41;;;-3.39;99.90
53011;BME280;42803;55.762;38.084;2023-02-15T07:23:57;100015.41;;;-3.40;98.96
53011;BME280;42803;55.762;38.084;2023-02-15T07:26:29;99995.56;;;-3.67;97.56
53011;BME280;42803;55.762;38.084;2023-02-15T07:28:59;99995.78;;;-3.47;97.71
53011;BME280;42803;55.762;38.084;2023-02-15T07:31:29;99992.44;;;-3.40;96.82
53011;BME280;42803;55.762;38.084;2023-02-15T07:34:01;99993.94;;;-3.48;96.86
53011;BME280;42803;55.762;38.084;2023-02-15T07:36:30;100011.31;;;-3.45;96.82
53011;BME280;42803;55.762;38.084;2023-02-15T07:39:00;99991.31;;;-3.42;96.27
53011;BME280;42803;55.762;38.084;2023-02-15T07:41:29;100004.56;;;-3.45;96.46
53011;BME280;42803;55.762;38.084;2023-02-15T07:43:58;100013.72;;;-3.34;96.76
53011;BME280;42803;55.762;38.084;2023-02-15T07:46:28;100004.22;;;-3.35;95.88
53011;BME280;42803;55.762;38.084;2023-02-15T07:49:01;99999.69;;;-3.43;95.42
53011;BME280;42803;55.762;38.084;2023-02-15T07:51:31;99995.28;;;-3.44;95.48
53011;BME280;42803;55.762;38.084;2023-02-15T07:54:00;100000.94;;;-3.34;95.46
53011;BME280;42803;55.762;38.084;2023-02-15T07:56:29;99997.94;;;-3.00;94.72
53011;BME280;42803;55.762;38.084;2023-02-15T07:59:00;100022.88;;;-2.92;94.53
53011;BME280;42803;55.762;38.084;2023-02-15T08:01:32;100006.53;;;-2.87;93.94
53011;BME280;42803;55.762;38.084;2023-02-15T08:04:05;100014.19;;;-2.87;92.53
53011;BME280;42803;55.762;38.084;2023-02-15T08:06:35;100022.09;;;-2.85;93.15
53011;BME280;42803;55.762;38.084;2023-02-15T08:09:05;100044.66;;;-2.88;92.93
53011;BME280;42803;55.762;38.084;2023-02-15T08:11:36;100026.22;;;-2.99;93.02
53011;BME280;42803;55.762;38.084;2023-02-15T08:14:09;100029.66;;;-3.11;93.24
53011;BME280;42803;55.762;38.084;2023-02-15T08:16:44;100031.03;;;-3.13;93.40
53011;BME280;42803;55.762;38.084;2023-02-15T08:19:17;100032.81;;;-3.06;93.86
53011;BME280;42803;55.762;38.084;2023-02-15T08:21:49;100012.25;;;-3.13;93.95
53011;BME280;42803;55.762;38.084;2023-02-15T08:24:21;100038.94;;;-3.30;93.43
53011;BME280;42803;55.762;38.084;2023-02-15T08:26:51;100053.03;;;-3.45;93.71
53011;BME280;42803;55.762;38.084;2023-02-15T08:29:25;100043.91;;;-3.37;94.15
53011;BME280;42803;55.762;38.084;2023-02-15T08:31:56;100031.72;;;-3.27;93.60
53011;BME280;42803;55.762;38.084;2023-02-15T08:34:28;100039.09;;;-3.23;93.17
53011;BME280;42803;55.762;38.084;2023-02-15T08:36:58;100038.59;;;-3.20;93.12
53011;BME280;42803;55.762;38.084;2023-02-15T08:39:28;100055.09;;;-3.05;93.22
53011;BME280;42803;55.762;38.084;2023-02-15T08:41:57;100041.69;;;-3.10;92.69
53011;BME280;42803;55.762;38.084;2023-02-15T08:44:26;100022.41;;;-3.08;92.12
53011;BME280;42803;55.762;38.084;2023-02-15T08:46:55;100036.81;;;-3.08;92.49
53011;BME280;42803;55.762;38.084;2023-02-15T08:49:31;100042.75;;;-3.21;91.92
53011;BME280;42803;55.762;38.084;2023-02-15T08:52:01;100044.53;;;-3.14;91.65
53011;BME280;42803;55.762;38.084;2023-02-15T08:54:30;100059.06;;;-3.07;92.28
53011;BME280;42803;55.762;38.084;2023-02-15T08:56:59;100056.53;;;-3.07;92.25
53011;BME280;42803;55.762;38.084;2023-02-15T08:59:28;100068.38;;;-3.08;91.96
53011;BME280;42803;55.762;38.084;2023-02-15T09:01:57;100037.78;;;-3.13;92.14
53011;BME280;42803;55.762;38.084;2023-02-15T09:04:26;100056.53;;;-3.07;92.70
53011;BME280;42803;55.762;38.084;2023-02-15T09:06:59;100053.34;;;-3.12;93.00
53011;BME280;42803;55.762;38.084;2023-02-15T09:09:29;100058.06;;;-3.21;93.48
53011;BME280;42803;55.762;38.084;2023-02-15T09:11:59;100041.78;;;-3.15;92.72
53011;BME280;42803;55.762;38.084;2023-02-15T09:14:29;100057.09;;;-3.15;92.75
53011;BME280;42803;55.762;38.084;2023-02-15T09:16:58;100044.09;;;-2.99;92.45
53011;BME280;42803;55.762;38.084;2023-02-15T09:19:27;100062.81;;;-2.92;92.23
53011;BME280;42803;55.762;38.084;2023-02-15T09:21:58;100059.34;;;-2.93;92.07
53011;BME280;42803;55.762;38.084;2023-02-15T09:24:33;100061.75;;;-2.82;92.20
53011;BME280;42803;55.762;38.084;2023-02-15T09:27:02;100068.41;;;-2.77;91.83
53011;BME280;42803;55.762;38.084;2023-02-15T09:29:33;100075.63;;;-2.80;91.37
53011;BME280;42803;55.762;38.084;2023-02-15T09:32:02;100069.19;;;-2.83;90.75
53011;BME280;42803;55.762;38.084;2023-02-15T09:34:32;100083.00;;;-2.76;91.38
53011;BME280;42803;55.762;38.084;2023-02-15T09:37:05;100077.84;;;-2.88;90.81
53011;BME280;42803;55.762;38.084;2023-02-15T09:39:37;100082.19;;;-3.00;90.96
53011;BME280;42803;55.762;38.084;2023-02-15T09:42:39;100072.03;;;-2.87;91.25
53011;BME280;42803;55.762;38.084;2023-02-15T09:45:23;100077.13;;;-2.87;90.91
53011;BME280;42803;55.762;38.084;2023-02-15T09:50:59;100084.34;;;-2.72;90.03
53011;BME280;42803;55.762;38.084;2023-02-15T09:53:42;100081.47;;;-2.81;90.43
53011;BME280;42803;55.762;38.084;2023-02-15T09:56:22;100082.75;;;-2.90;91.21
53011;BME280;42803;55.762;38.084;2023-02-15T09:58:57;100077.47;;;-2.79;91.26
53011;BME280;42803;55.762;38.084;2023-02-15T10:01:33;100087.19;;;-2.76;90.77
53011;BME280;42803;55.762;38.084;2023-02-15T10:04:35;100093.50;;;-2.80;90.96
53011;BME280;42803;55.762;38.084;2023-02-15T10:07:21;100080.97;;;-2.78;91.08
53011;BME280;42803;55.762;38.084;2023-02-15T10:10:05;100094.81;;;-2.89;90.86
53011;BME280;42803;55.762;38.084;2023-02-15T10:12:46;100084.75;;;-3.00;91.02
53011;BME280;42803;55.762;38.084;2023-02-15T10:15:41;100096.50;;;-2.95;91.15
53011;BME280;42803;55.762;38.084;2023-02-15T10:18:21;100096.38;;;-3.02;90.70
53011;BME280;42803;55.762;38.084;2023-02-15T10:20:56;100093.75;;;-2.97;90.85
53011;BME280;42803;55.762;38.084;2023-02-15T10:23:48;100095.88;;;-2.81;91.18
53011;BME280;42803;55.762;38.084;2023-02-15T10:26:28;100108.56;;;-2.76;91.04
53011;BME280;42803;55.762;38.084;2023-02-15T10:29:04;100111.19;;;-2.81;91.36
53011;BME280;42803;55.762;38.084;2023-02-15T10:31:41;100116.50;;;-2.98;90.88
53011;BME280;42803;55.762;38.084;2023-02-15T10:34:15;100106.97;;;-2.93;91.91
53011;BME280;42803;55.762;38.084;2023-02-15T10:37:10;100113.94;;;-2.80;91.71
53011;BME280;42803;55.762;38.084;2023-02-15T10:39:50;100128.06;;;-2.76;90.70
53011;BME280;42803;55.762;38.084;2023-02-15T10:42:32;100111.91;;;-2.82;91.02
53011;BME280;42803;55.762;38.084;2023-02-15T10:45:14;100114.50;;;-2.70;90.82
53011;BME280;42803;55.762;38.084;2023-02-15T10:48:05;100114.78;;;-2.55;90.83
53011;BME280;42803;55.762;38.084;2023-02-15T10:50:47;100128.66;;;-2.53;90.24
53011;BME280;42803;55.762;38.084;2023-02-15T10:56:20;100138.47;;;-2.56;90.08
53011;BME280;42803;55.762;38.084;2023-02-15T10:59:16;100140.25;;;-2.50;90.04
53011;BME280;42803;55.762;38.084;2023-02-15T11:01:51;100143.50;;;-2.51;90.12
53011;BME280;42803;55.762;38.084;2023-02-15T11:04:40;100136.72;;;-2.63;89.47
53011;BME280;42803;55.762;38.084;2023-02-15T11:07:17;100137.22;;;-2.84;89.08
53011;BME280;42803;55.762;38.084;2023-02-15T11:09:49;100138.78;;;-2.79;89.45
53011;BME280;42803;55.762;38.084;2023-02-15T11:12:23;100150.00;;;-2.84;89.01
53011;BME280;42803;55.762;38.084;2023-02-15T11:15:02;100143.69;;;-2.80;89.29
53011;BME280;42803;55.762;38.084;2023-02-15T11:17:45;100142.00;;;-2.74;89.16
53011;BME280;42803;55.762;38.084;2023-02-15T11:20:24;100133.19;;;-2.76;88.45
53011;BME280;42803;55.762;38.084;2023-02-15T11:22:55;100144.69;;;-2.67;87.69
53011;BME280;42803;55.762;38.084;2023-02-15T11:25:28;100143.69;;;-2.62;88.02
53011;BME280;42803;55.762;38.084;2023-02-15T11:27:59;100162.69;;;-2.60;87.66
53011;BME280;42803;55.762;38.084;2023-02-15T11:30:40;100151.63;;;-2.66;86.83
53011;BME280;42803;55.762;38.084;2023-02-15T11:33:16;100159.06;;;-2.67;86.81
53011;BME280;42803;55.762;38.084;2023-02-15T11:35:50;100158.91;;;-2.56;88.21
53011;BME280;42803;55.762;38.084;2023-02-15T11:38:23;100166.44;;;-2.63;87.60
53011;BME280;42803;55.762;38.084;2023-02-15T11:40:59;100175.88;;;-2.75;87.29
53011;BME280;42803;55.762;38.084;2023-02-15T11:43:34;100177.75;;;-2.74;87.06
53011;BME280;42803;55.762;38.084;2023-02-15T11:46:08;100175.25;;;-2.80;86.78
53011;BME280;42803;55.762;38.084;2023-02-15T11:48:39;100183.94;;;-2.85;87.09
53011;BME280;42803;55.762;38.084;2023-02-15T11:51:11;100174.72;;;-2.90;87.41
53011;BME280;42803;55.762;38.084;2023-02-15T11:53:45;100181.50;;;-2.96;87.64
53011;BME280;42803;55.762;38.084;2023-02-15T11:56:16;100187.72;;;-2.94;87.54
53011;BME280;42803;55.762;38.084;2023-02-15T11:58:49;100191.91;;;-2.95;87.25
53011;BME280;42803;55.762;38.084;2023-02-15T12:01:27;100186.91;;;-2.82;87.37
53011;BME280;42803;55.762;38.084;2023-02-15T12:03:59;100189.16;;;-2.96;87.04
53011;BME280;42803;55.762;38.084;2023-02-15T12:06:34;100194.06;;;-2.98;87.14
53011;BME280;42803;55.762;38.084;2023-02-15T12:09:06;100206.47;;;-3.06;86.75
53011;BME280;42803;55.762;38.084;2023-02-15T12:11:40;100195.31;;;-3.07;86.76
53011;BME280;42803;55.762;38.084;2023-02-15T12:14:11;100205.63;;;-3.12;86.74
53011;BME280;42803;55.762;38.084;2023-02-15T12:16:47;100197.69;;;-3.08;86.22
53011;BME280;42803;55.762;38.084;2023-02-15T12:19:27;100207.16;;;-3.07;85.74
53011;BME280;42803;55.762;38.084;2023-02-15T12:21:58;100205.75;;;-3.05;85.58
53011;BME280;42803;55.762;38.084;2023-02-15T12:24:29;100214.75;;;-3.02;85.85
53011;BME280;42803;55.762;38.084;2023-02-15T12:27:02;100218.25;;;-3.01;85.94
53011;BME280;42803;55.762;38.084;2023-02-15T12:29:39;100224.97;;;-3.02;85.53
53011;BME280;42803;55.762;38.084;2023-02-15T12:32:17;100204.63;;;-3.07;85.62
53011;BME280;42803;55.762;38.084;2023-02-15T12:34:47;100222.97;;;-3.10;85.03
53011;BME280;42803;55.762;38.084;2023-02-15T12:37:22;100216.16;;;-3.22;84.67
53011;BME280;42803;55.762;38.084;2023-02-15T12:39:54;100222.00;;;-3.05;84.79
53011;BME280;42803;55.762;38.084;2023-02-15T12:42:24;100223.59;;;-3.05;84.95
53011;BME280;42803;55.762;38.084;2023-02-15T12:44:59;100228.25;;;-3.03;85.16
53011;BME280;42803;55.762;38.084;2023-02-15T12:47:32;100226.44;;;-3.09;84.94
53011;BME280;42803;55.762;38.084;2023-02-15T12:50:10;100228.78;;;-3.11;84.67
53011;BME280;42803;55.762;38.084;2023-02-15T12:52:46;100231.63;;;-3.15;84.71
53011;BME280;42803;55.762;38.084;2023-02-15T12:55:22;100238.66;;;-3.20;84.54
53011;BME280;42803;55.762;38.084;2023-02-15T12:58:06;100240.31;;;-3.26;85.16
53011;BME280;42803;55.762;38.084;2023-02-15T13:00:36;100251.78;;;-3.35;85.48
53011;BME280;42803;55.762;38.084;2023-02-15T13:03:16;100243.88;;;-3.36;85.25
53011;BME280;42803;55.762;38.084;2023-02-15T13:05:47;100262.69;;;-3.36;85.46
53011;BME280;42803;55.762;38.084;2023-02-15T13:08:27;100258.78;;;-3.39;85.53
53011;BME280;42803;55.762;38.084;2023-02-15T13:10:56;100256.28;;;-3.45;85.99
53011;BME280;42803;55.762;38.084;2023-02-15T13:13:32;100265.34;;;-3.47;86.57
53011;BME280;42803;55.762;38.084;2023-02-15T13:16:04;100281.16;;;-3.50;86.48
53011;BME280;42803;55.762;38.084;2023-02-15T13:18:38;100269.56;;;-3.53;86.22
53011;BME280;42803;55.762;38.084;2023-02-15T13:21:12;100265.03;;;-3.67;85.37
53011;BME280;42803;55.762;38.084;2023-02-15T13:23:46;100274.81;;;-3.70;85.80
53011;BME280;42803;55.762;38.084;2023-02-15T13:26:19;100281.78;;;-3.75;86.40